createdAt,value
2022-10-30T00:01:03.715Z,8.27
2022-10-30T00:03:06.227Z,5.32
2022-10-30T00:05:08.609Z,5.28
2022-10-30T00:07:10.387Z,5.28
2022-10-30T00:09:12.104Z,4.50
2022-10-30T00:11:14.106Z,4.72
2022-10-30T00:13:16.161Z,5.22
2022-10-30T00:15:18.013Z,5.88
2022-10-30T00:17:19.668Z,8.20
2022-10-30T00:19:21.322Z,6.75
2022-10-30T00:21:23.073Z,5.13
2022-10-30T00:23:24.594Z,8.35
2022-10-30T00:25:26.275Z,5.82
2022-10-30T00:27:28.013Z,6.15
2022-10-30T00:29:29.680Z,5.85
2022-10-30T00:31:31.312Z,6.03
2022-10-30T00:33:33.459Z,7.70
2022-10-30T00:35:35.251Z,6.97
2022-10-30T00:37:37.519Z,8.57
2022-10-30T00:39:39.251Z,5.75
2022-10-30T00:41:42.875Z,7.35
2022-10-30T00:43:44.729Z,5.50
2022-10-30T00:45:46.354Z,8.50
2022-10-30T00:48:00.747Z,7.15
2022-10-30T00:50:08.022Z,7.95
2022-10-30T00:52:10.849Z,8.75
2022-10-30T00:54:15.840Z,7.82
2022-10-30T00:56:22.972Z,8.00
2022-10-30T00:58:29.465Z,6.88
2022-10-30T01:00:31.595Z,6.82
2022-10-30T01:02:33.585Z,6.45
2022-10-30T01:04:38.111Z,8.55
2022-10-30T01:06:43.164Z,7.97
2022-10-30T01:08:48.690Z,6.55
2022-10-30T01:10:51.185Z,7.13
2022-10-30T01:12:55.117Z,6.38
2022-10-30T01:14:58.921Z,5.45
2022-10-30T01:17:19.121Z,7.97
2022-10-30T01:19:38.992Z,6.90
2022-10-30T01:21:57.336Z,8.23
2022-10-30T01:24:05.125Z,8.20
2022-10-30T01:26:23.182Z,6.13
2022-10-30T01:28:44.232Z,6.28
2022-10-30T01:31:04.536Z,5.82
2022-10-30T01:33:23.425Z,7.20
2022-10-30T01:35:49.151Z,7.50
2022-10-30T01:38:15.389Z,8.70
2022-10-30T01:40:20.209Z,7.00
2022-10-30T01:42:46.760Z,8.13
2022-10-30T01:44:50.813Z,6.72
2022-10-30T01:47:29.908Z,7.13
2022-10-30T01:49:59.570Z,6.53
2022-10-30T01:52:27.978Z,7.28
2022-10-30T01:54:34.319Z,9.68
2022-10-30T01:56:58.077Z,7.75
2022-10-30T01:59:28.801Z,8.25
2022-10-30T02:01:36.799Z,7.40
2022-10-30T02:03:39.414Z,7.88
2022-10-30T02:05:49.029Z,6.68
2022-10-30T02:07:53.111Z,7.72
2022-10-30T02:09:55.787Z,6.00
2022-10-30T02:11:58.210Z,8.48
2022-10-30T02:14:04.466Z,8.77
2022-10-30T02:16:06.864Z,5.65
2022-10-30T02:18:09.462Z,7.15
2022-10-30T02:20:19.050Z,6.72
2022-10-30T02:22:21.233Z,6.05
2022-10-30T02:24:23.684Z,6.25
2022-10-30T02:26:25.302Z,6.35
2022-10-30T02:28:26.902Z,6.18
2022-10-30T02:30:31.995Z,7.15
2022-10-30T02:32:36.083Z,8.48
2022-10-30T02:34:37.730Z,7.38
2022-10-30T02:36:39.420Z,6.18
2022-10-30T02:38:41.737Z,6.97
2022-10-30T02:40:43.316Z,8.25
2022-10-30T02:42:44.997Z,9.45
2022-10-30T02:44:46.845Z,7.63
2022-10-30T02:46:48.499Z,8.98
2022-10-30T02:48:50.199Z,7.93
2022-10-30T02:50:51.830Z,8.50
2022-10-30T02:52:53.510Z,7.63
2022-10-30T02:54:55.183Z,9.88
2022-10-30T02:56:56.978Z,6.55
2022-10-30T02:58:58.635Z,7.15
2022-10-30T03:01:18.168Z,7.18
2022-10-30T03:03:23.161Z,6.78
2022-10-30T03:05:25.873Z,6.28
2022-10-30T03:07:27.674Z,5.93
2022-10-30T03:09:29.356Z,5.53
2022-10-30T03:11:30.945Z,7.70
2022-10-30T03:13:34.354Z,6.57
2022-10-30T03:15:36.183Z,7.10
2022-10-30T03:17:38.614Z,7.75
2022-10-30T03:19:41.014Z,5.65
2022-10-30T03:21:43.756Z,4.05
2022-10-30T03:23:50.541Z,6.97
2022-10-30T03:25:57.548Z,3.42
2022-10-30T03:28:00.141Z,6.32
2022-10-30T03:30:02.609Z,4.35
2022-10-30T03:32:05.032Z,5.30
2022-10-30T03:34:11.246Z,4.18
2022-10-30T03:36:16.797Z,4.47
2022-10-30T03:38:18.474Z,5.13
2022-10-30T03:40:20.469Z,6.53
2022-10-30T03:42:22.182Z,6.47
2022-10-30T03:44:29.571Z,5.35
2022-10-30T03:46:31.942Z,6.35
2022-10-30T03:48:51.421Z,5.55
2022-10-30T03:50:57.948Z,5.07
2022-10-30T03:53:01.159Z,5.82
2022-10-30T03:55:03.228Z,8.82
2022-10-30T03:57:05.110Z,5.75
2022-10-30T03:59:15.934Z,5.30
2022-10-30T04:01:25.409Z,6.95
2022-10-30T04:03:35.017Z,5.70
2022-10-30T04:05:37.835Z,7.95
2022-10-30T04:07:39.508Z,7.18
2022-10-30T04:09:41.002Z,7.50
2022-10-30T04:11:43.734Z,5.22
2022-10-30T04:13:45.471Z,9.18
2022-10-30T04:15:56.367Z,7.97
2022-10-30T04:18:03.381Z,8.15
2022-10-30T04:20:06.565Z,7.80
2022-10-30T04:22:08.628Z,6.72
2022-10-30T04:24:16.114Z,6.78
2022-10-30T04:26:20.203Z,7.07
2022-10-30T04:28:22.114Z,11.65
2022-10-30T04:30:27.725Z,6.18
2022-10-30T04:32:29.450Z,8.43
2022-10-30T04:34:33.974Z,7.88
2022-10-30T04:36:36.415Z,8.55
2022-10-30T04:38:40.724Z,8.82
2022-10-30T04:40:46.125Z,7.05
2022-10-30T04:42:48.951Z,7.30
2022-10-30T04:44:52.149Z,7.90
2022-10-30T04:46:54.009Z,7.53
2022-10-30T04:48:55.825Z,7.05
2022-10-30T04:51:00.561Z,8.27
2022-10-30T04:53:10.465Z,8.27
2022-10-30T04:55:12.115Z,5.90
2022-10-30T04:57:16.337Z,6.75
2022-10-30T04:59:18.924Z,5.82
2022-10-30T05:01:20.838Z,5.10
2022-10-30T05:03:24.476Z,5.78
2022-10-30T05:05:28.208Z,7.28
2022-10-30T05:07:29.931Z,10.50
2022-10-30T05:09:35.427Z,8.20
2022-10-30T05:11:36.934Z,7.78
2022-10-30T05:13:38.679Z,7.30
2022-10-30T05:15:40.563Z,5.32
2022-10-30T05:17:43.292Z,7.22
2022-10-30T05:19:44.869Z,7.00
2022-10-30T05:21:47.595Z,6.78
2022-10-30T05:23:49.498Z,5.75
2022-10-30T05:25:51.892Z,6.85
2022-10-30T05:28:03.260Z,6.28
2022-10-30T05:30:09.596Z,6.97
2022-10-30T05:32:11.323Z,8.70
2022-10-30T05:34:16.148Z,5.28
2022-10-30T05:36:19.304Z,6.40
2022-10-30T05:38:21.981Z,6.22
2022-10-30T05:40:25.531Z,8.90
2022-10-30T05:42:27.229Z,7.00
2022-10-30T05:44:58.733Z,6.93
2022-10-30T05:46:53.660Z,7.35
2022-10-30T05:49:01.960Z,6.65
2022-10-30T05:51:04.460Z,7.03
2022-10-30T05:53:06.479Z,7.18
2022-10-30T05:55:08.776Z,6.78
2022-10-30T05:57:33.196Z,7.13
2022-10-30T05:59:36.098Z,6.88
2022-10-30T06:01:38.250Z,7.47
2022-10-30T06:03:48.926Z,5.95
2022-10-30T06:05:51.236Z,6.00
2022-10-30T06:07:56.724Z,6.32
2022-10-30T06:09:58.378Z,4.38
2022-10-30T06:12:17.591Z,5.85
2022-10-30T06:14:28.607Z,7.68
2022-10-30T06:18:50.906Z,5.53
2022-10-30T06:20:54.884Z,5.50
2022-10-30T06:23:07.457Z,7.15
2022-10-30T06:25:22.238Z,5.32
2022-10-30T06:27:35.294Z,5.68
2022-10-30T06:29:37.914Z,7.00
2022-10-30T06:31:40.903Z,6.93
2022-10-30T06:33:42.796Z,6.63
2022-10-30T06:35:49.375Z,5.53
2022-10-30T06:37:53.646Z,5.28
2022-10-30T06:39:57.786Z,6.78
2022-10-30T06:42:19.901Z,6.40
2022-10-30T06:44:41.225Z,8.20
2022-10-30T06:46:42.941Z,9.75
2022-10-30T06:48:44.611Z,9.40
2022-10-30T06:50:46.727Z,7.95
2022-10-30T06:52:49.531Z,9.77
2022-10-30T06:54:51.930Z,14.13
2022-10-30T06:57:16.741Z,24.17
2022-10-30T06:59:41.001Z,25.75
2022-10-30T07:02:02.478Z,22.50
2022-10-30T07:04:22.662Z,21.65
2022-10-30T07:06:24.694Z,14.70
2022-10-30T07:08:26.449Z,13.25
2022-10-30T07:10:28.615Z,12.05
2022-10-30T07:12:54.013Z,13.65
2022-10-30T07:15:28.516Z,9.23
2022-10-30T07:17:40.588Z,7.88
2022-10-30T07:19:51.025Z,7.55
2022-10-30T07:21:55.567Z,7.43
2022-10-30T07:23:57.704Z,9.88
2022-10-30T07:26:11.602Z,17.08
2022-10-30T07:28:19.312Z,22.25
2022-10-30T07:30:36.686Z,35.15
2022-10-30T07:33:02.473Z,37.63
2022-10-30T07:35:22.998Z,29.08
2022-10-30T07:37:31.698Z,27.58
2022-10-30T07:39:39.464Z,22.73
2022-10-30T07:41:57.136Z,18.58
2022-10-30T07:44:17.728Z,18.45
2022-10-30T07:46:30.490Z,12.88
2022-10-30T07:48:56.376Z,11.23
2022-10-30T07:51:03.992Z,10.98
2022-10-30T07:53:06.653Z,14.45
2022-10-30T07:55:09.629Z,9.73
2022-10-30T07:57:23.174Z,10.25
2022-10-30T08:00:03.922Z,10.50
2022-10-30T08:02:15.683Z,12.43
2022-10-30T08:04:36.521Z,13.93
2022-10-30T08:06:57.956Z,14.75
2022-10-30T08:09:00.112Z,12.25
2022-10-30T08:11:03.184Z,14.02
2022-10-30T08:13:05.746Z,13.80
2022-10-30T08:15:08.566Z,16.63
2022-10-30T08:17:10.705Z,11.63
2022-10-30T08:19:13.793Z,15.45
2022-10-30T08:21:17.122Z,10.73
2022-10-30T08:23:31.367Z,8.90
2022-10-30T08:25:36.441Z,8.00
2022-10-30T08:27:38.209Z,8.50
2022-10-30T08:29:41.607Z,9.52
2022-10-30T08:31:43.368Z,9.23
2022-10-30T08:33:57.291Z,8.40
2022-10-30T08:36:07.451Z,7.07
2022-10-30T08:38:16.843Z,7.95
2022-10-30T08:40:19.791Z,5.78
2022-10-30T08:42:32.007Z,8.50
2022-10-30T08:44:36.195Z,9.07
2022-10-30T08:46:56.548Z,6.22
2022-10-30T08:48:59.928Z,6.72
2022-10-30T08:51:03.840Z,9.60
2022-10-30T08:53:14.368Z,6.10
2022-10-30T08:55:16.173Z,6.60
2022-10-30T08:57:17.744Z,5.68
2022-10-30T08:59:21.409Z,6.70
2022-10-30T09:01:25.840Z,9.23
2022-10-30T09:03:46.480Z,5.07
2022-10-30T09:06:23.359Z,8.07
2022-10-30T09:08:50.969Z,5.22
2022-10-30T09:11:18.828Z,8.57
2022-10-30T09:13:20.445Z,9.77
2022-10-30T09:15:24.014Z,8.55
2022-10-30T09:17:29.861Z,6.22
2022-10-30T09:19:32.045Z,10.45
2022-10-30T09:21:34.253Z,7.82
2022-10-30T09:23:42.209Z,9.38
2022-10-30T09:26:05.515Z,7.72
2022-10-30T09:28:21.898Z,6.22
2022-10-30T09:30:43.848Z,7.75
2022-10-30T09:32:58.372Z,6.82
2022-10-30T09:35:19.711Z,8.38
2022-10-30T09:37:23.314Z,7.35
2022-10-30T09:39:30.175Z,7.03
2022-10-30T09:42:06.030Z,7.80
2022-10-30T09:44:30.107Z,7.75
2022-10-30T09:46:50.687Z,6.30
2022-10-30T09:49:18.787Z,5.13
2022-10-30T09:51:48.134Z,6.97
2022-10-30T09:54:16.855Z,6.53
2022-10-30T09:56:40.007Z,7.07
2022-10-30T09:58:58.577Z,7.75
2022-10-30T10:01:31.589Z,6.80
2022-10-30T10:03:56.962Z,6.65
2022-10-30T10:06:20.552Z,6.40
2022-10-30T10:08:50.972Z,5.43
2022-10-30T10:11:31.201Z,7.35
2022-10-30T10:13:39.920Z,7.18
2022-10-30T10:15:52.055Z,9.65
2022-10-30T10:17:54.201Z,6.75
2022-10-30T10:19:59.648Z,6.18
2022-10-30T10:22:05.642Z,6.93
2022-10-30T10:24:19.655Z,7.65
2022-10-30T10:26:21.730Z,6.80
2022-10-30T10:28:57.025Z,6.93
2022-10-30T10:31:01.393Z,8.25
2022-10-30T10:33:24.557Z,6.80
2022-10-30T10:35:56.096Z,10.23
2022-10-30T10:38:22.673Z,6.88
2022-10-30T10:40:47.227Z,5.60
2022-10-30T10:43:25.789Z,10.85
2022-10-30T10:45:54.913Z,7.43
2022-10-30T10:50:25.892Z,5.22
2022-10-30T10:52:41.742Z,7.22
2022-10-30T10:54:47.707Z,9.55
2022-10-30T10:56:51.797Z,8.85
2022-10-30T10:59:01.725Z,9.98
2022-10-30T11:01:09.768Z,8.73
2022-10-30T11:03:26.000Z,7.82
2022-10-30T11:05:40.040Z,5.78
2022-10-30T11:07:49.723Z,6.20
2022-10-30T11:09:54.179Z,6.80
2022-10-30T11:11:56.370Z,8.20
2022-10-30T11:13:58.647Z,5.70
2022-10-30T11:16:07.091Z,9.25
2022-10-30T11:18:10.823Z,6.82
2022-10-30T11:20:18.607Z,7.50
2022-10-30T11:22:31.760Z,7.10
2022-10-30T11:24:37.078Z,5.35
2022-10-30T11:26:38.888Z,5.85
2022-10-30T11:29:06.433Z,7.88
2022-10-30T11:31:18.508Z,6.90
2022-10-30T11:33:27.489Z,5.32
2022-10-30T11:35:41.706Z,7.55
2022-10-30T11:37:44.877Z,7.60
2022-10-30T11:40:02.752Z,5.95
2022-10-30T11:42:14.611Z,8.52
2022-10-30T11:44:16.438Z,6.30
2022-10-30T11:46:24.640Z,7.07
2022-10-30T11:48:34.122Z,6.07
2022-10-30T11:50:35.974Z,6.80
2022-10-30T11:52:42.172Z,7.22
2022-10-30T11:54:48.421Z,5.90
2022-10-30T11:56:51.024Z,8.20
2022-10-30T11:58:55.570Z,6.22
2022-10-30T12:01:02.951Z,7.53
2022-10-30T12:03:04.760Z,6.95
2022-10-30T12:05:44.883Z,5.93
2022-10-30T12:07:49.251Z,6.47
2022-10-30T12:09:51.183Z,7.78
2022-10-30T12:11:52.914Z,7.68
2022-10-30T12:13:55.539Z,6.30
2022-10-30T12:16:13.090Z,6.95
2022-10-30T12:20:37.672Z,10.25
2022-10-30T12:22:39.789Z,6.00
2022-10-30T12:24:44.299Z,7.50
2022-10-30T12:26:53.016Z,6.82
2022-10-30T12:29:00.843Z,6.30
2022-10-30T12:31:11.549Z,5.90
2022-10-30T12:33:23.694Z,5.78
2022-10-30T12:35:38.692Z,8.80
2022-10-30T12:37:43.723Z,5.72
2022-10-30T12:39:56.169Z,7.20
2022-10-30T12:42:08.955Z,11.43
2022-10-30T12:44:36.669Z,9.85
2022-10-30T12:46:50.266Z,5.78
2022-10-30T12:49:02.594Z,7.43
2022-10-30T12:51:26.200Z,9.13
2022-10-30T12:53:34.580Z,6.00
2022-10-30T12:55:49.913Z,6.47
2022-10-30T12:58:31.442Z,6.60
2022-10-30T13:00:43.906Z,7.95
2022-10-30T13:03:14.328Z,6.13
2022-10-30T13:05:37.183Z,6.38
2022-10-30T13:07:45.582Z,6.60
2022-10-30T13:09:56.030Z,8.18
2022-10-30T13:12:04.562Z,6.25
2022-10-30T13:14:14.040Z,5.97
2022-10-30T13:16:26.121Z,8.05
2022-10-30T13:18:33.443Z,6.95
2022-10-30T13:20:35.807Z,5.45
2022-10-30T13:22:58.309Z,6.97
2022-10-30T13:25:17.537Z,5.53
2022-10-30T13:27:26.951Z,5.75
2022-10-30T13:29:40.833Z,6.78
2022-10-30T13:32:17.041Z,6.30
2022-10-30T13:34:31.311Z,6.07
2022-10-30T13:36:50.658Z,9.00
2022-10-30T13:39:15.323Z,4.68
2022-10-30T13:41:19.692Z,6.05
2022-10-30T13:43:59.326Z,6.75
2022-10-30T13:46:27.054Z,6.85
2022-10-30T13:48:40.905Z,7.45
2022-10-30T13:51:24.356Z,7.38
2022-10-30T13:53:30.821Z,6.70
2022-10-30T13:55:35.866Z,7.05
2022-10-30T13:58:00.076Z,6.47
2022-10-30T14:00:16.901Z,6.22
2022-10-30T14:02:27.850Z,6.45
2022-10-30T14:04:43.721Z,8.55
2022-10-30T14:07:14.726Z,8.63
2022-10-30T14:09:35.308Z,7.78
2022-10-30T14:11:37.159Z,9.10
2022-10-30T14:14:03.528Z,7.13
2022-10-30T14:16:07.449Z,5.82
2022-10-30T14:18:12.396Z,7.68
2022-10-30T14:20:19.709Z,9.68
2022-10-30T14:22:25.053Z,7.05
2022-10-30T14:24:34.503Z,5.88
2022-10-30T14:26:36.387Z,8.20
2022-10-30T14:28:41.350Z,8.70
2022-10-30T14:30:44.498Z,10.93
2022-10-30T14:32:52.375Z,6.30
2022-10-30T14:34:54.772Z,7.43
2022-10-30T14:36:56.480Z,7.03
2022-10-30T14:39:13.187Z,8.00
2022-10-30T14:41:40.967Z,8.35
2022-10-30T14:43:56.421Z,10.10
2022-10-30T14:46:03.847Z,8.80
2022-10-30T14:48:22.357Z,7.10
2022-10-30T14:50:26.673Z,5.78
2022-10-30T14:53:06.177Z,7.80
2022-10-30T14:55:46.890Z,7.82
2022-10-30T14:57:54.181Z,8.18
2022-10-30T15:00:35.039Z,7.28
2022-10-30T15:03:10.474Z,7.22
2022-10-30T15:05:25.212Z,11.23
2022-10-30T15:07:35.605Z,9.38
2022-10-30T15:10:12.710Z,11.30
2022-10-30T15:14:54.542Z,11.32
2022-10-30T15:16:56.369Z,10.07
2022-10-30T15:19:04.747Z,11.45
2022-10-30T15:21:07.776Z,10.00
2022-10-30T15:23:16.440Z,9.63
2022-10-30T15:25:24.370Z,9.50
2022-10-30T15:27:26.781Z,7.68
2022-10-30T15:29:33.448Z,8.55
2022-10-30T15:31:35.163Z,7.57
2022-10-30T15:33:38.065Z,7.78
2022-10-30T15:35:47.348Z,7.38
2022-10-30T15:38:09.962Z,7.85
2022-10-30T15:40:19.117Z,8.65
2022-10-30T15:42:27.063Z,6.53
2022-10-30T15:44:33.202Z,9.10
2022-10-30T15:46:35.252Z,8.85
2022-10-30T15:48:41.843Z,10.23
2022-10-30T15:50:52.449Z,10.75
2022-10-30T15:52:54.646Z,8.70
2022-10-30T15:55:06.942Z,8.13
2022-10-30T15:57:49.370Z,9.38
2022-10-30T15:59:42.176Z,11.27
2022-10-30T16:01:46.195Z,7.97
2022-10-30T16:03:54.116Z,11.25
2022-10-30T16:06:37.613Z,12.15
2022-10-30T16:08:48.477Z,10.40
2022-10-30T16:10:54.172Z,9.93
2022-10-30T16:12:58.151Z,8.98
2022-10-30T16:15:07.944Z,12.90
2022-10-30T16:17:11.195Z,8.63
2022-10-30T16:19:40.602Z,9.05
2022-10-30T16:21:47.081Z,11.43
2022-10-30T16:23:55.136Z,9.02
2022-10-30T16:25:59.255Z,10.93
2022-10-30T16:28:05.127Z,8.45
2022-10-30T16:30:13.977Z,11.20
2022-10-30T16:32:19.094Z,8.68
2022-10-30T16:34:31.780Z,12.07
2022-10-30T16:36:33.543Z,10.73
2022-10-30T16:38:37.619Z,9.43
2022-10-30T16:40:42.165Z,6.00
2022-10-30T16:42:52.723Z,6.38
2022-10-30T16:45:14.938Z,9.60
2022-10-30T16:47:16.510Z,10.90
2022-10-30T16:49:23.806Z,11.15
2022-10-30T16:51:25.701Z,10.95
2022-10-30T16:53:28.574Z,9.25
2022-10-30T16:55:32.913Z,12.18
2022-10-30T16:57:42.356Z,10.63
2022-10-30T16:59:52.016Z,9.43
2022-10-30T17:02:05.884Z,9.15
2022-10-30T17:06:33.732Z,9.85
2022-10-30T17:08:43.267Z,9.15
2022-10-30T17:10:48.050Z,10.25
2022-10-30T17:12:51.572Z,7.18
2022-10-30T17:15:06.401Z,10.07
2022-10-30T17:17:32.405Z,10.80
2022-10-30T17:19:45.441Z,6.82
2022-10-30T17:21:57.523Z,11.98
2022-10-30T17:24:00.491Z,7.53
2022-10-30T17:26:10.650Z,7.82
2022-10-30T17:28:33.042Z,9.73
2022-10-30T17:30:42.713Z,10.50
2022-10-30T17:32:45.139Z,9.48
2022-10-30T17:34:50.506Z,16.02
2022-10-30T17:36:54.881Z,10.88
2022-10-30T17:38:56.605Z,10.02
2022-10-30T17:40:58.775Z,10.25
2022-10-30T17:43:00.414Z,9.73
2022-10-30T17:45:02.064Z,9.10
2022-10-30T17:47:18.557Z,10.80
2022-10-30T17:49:31.477Z,11.35
2022-10-30T17:51:33.226Z,11.75
2022-10-30T17:53:35.636Z,11.25
2022-10-30T17:55:38.999Z,15.95
2022-10-30T17:57:40.666Z,10.25
2022-10-30T17:59:43.167Z,11.05
2022-10-30T18:01:45.116Z,11.80
2022-10-30T18:03:50.131Z,14.32
2022-10-30T18:05:52.441Z,16.60
2022-10-30T18:07:54.125Z,13.95
2022-10-30T18:09:55.657Z,18.17
2022-10-30T18:11:57.298Z,17.95
2022-10-30T18:14:02.278Z,17.08
2022-10-30T18:16:09.105Z,16.77
2022-10-30T18:18:13.854Z,16.48
2022-10-30T18:20:15.527Z,12.98
2022-10-30T18:22:17.034Z,16.58
2022-10-30T18:24:18.800Z,16.27
2022-10-30T18:26:25.297Z,17.17
2022-10-30T18:28:29.256Z,17.27
2022-10-30T18:30:31.517Z,18.50
2022-10-30T18:32:33.236Z,22.48
2022-10-30T18:34:34.791Z,23.42
2022-10-30T18:36:36.369Z,21.63
2022-10-30T18:38:38.237Z,17.48
2022-10-30T18:40:40.701Z,20.25
2022-10-30T18:42:45.373Z,17.77
2022-10-30T18:44:46.960Z,16.95
2022-10-30T18:46:48.735Z,16.50
2022-10-30T18:48:50.509Z,17.17
2022-10-30T18:50:52.340Z,13.10
2022-10-30T18:52:54.168Z,13.30
2022-10-30T18:54:56.040Z,14.38
2022-10-30T18:57:03.066Z,9.73
2022-10-30T18:59:05.372Z,11.75
2022-10-30T19:01:12.545Z,10.05
2022-10-30T19:03:14.607Z,9.30
2022-10-30T19:05:22.810Z,11.35
2022-10-30T19:07:24.902Z,8.88
2022-10-30T19:09:26.476Z,9.90
2022-10-30T19:11:32.123Z,9.32
2022-10-30T19:13:33.940Z,9.63
2022-10-30T19:15:38.526Z,8.50
2022-10-30T19:17:40.120Z,7.32
2022-10-30T19:19:54.070Z,8.75
2022-10-30T19:21:55.721Z,10.90
2022-10-30T19:24:00.027Z,9.10
2022-10-30T19:26:01.739Z,8.23
2022-10-30T19:28:03.630Z,11.32
2022-10-30T19:30:06.900Z,10.35
2022-10-30T19:32:11.483Z,11.95
2022-10-30T19:34:13.163Z,12.05
2022-10-30T19:36:33.702Z,12.32
2022-10-30T19:38:35.513Z,9.23
2022-10-30T19:40:38.542Z,8.18
2022-10-30T19:42:40.222Z,8.68
2022-10-30T19:44:41.905Z,10.15
2022-10-30T19:46:43.461Z,11.95
2022-10-30T19:48:57.170Z,9.57
2022-10-30T19:50:59.775Z,11.77
2022-10-30T19:53:02.492Z,11.48
2022-10-30T19:55:07.788Z,8.40
2022-10-30T19:57:13.782Z,10.85
2022-10-30T19:59:15.973Z,9.18
2022-10-30T20:01:23.519Z,10.65
2022-10-30T20:03:32.973Z,11.10
2022-10-30T20:05:43.113Z,13.60
2022-10-30T20:08:06.629Z,12.55
2022-10-30T20:10:20.322Z,13.15
2022-10-30T20:12:21.893Z,15.65
2022-10-30T20:14:25.908Z,12.15
2022-10-30T20:16:27.518Z,13.82
2022-10-30T20:18:31.868Z,14.98
2022-10-30T20:20:35.154Z,15.98
2022-10-30T20:22:36.936Z,17.42
2022-10-30T20:24:38.380Z,14.68
2022-10-30T20:26:41.905Z,12.02
2022-10-30T20:28:44.758Z,9.80
2022-10-30T20:30:46.754Z,13.48
2022-10-30T20:32:51.030Z,8.95
2022-10-30T20:34:53.300Z,9.35
2022-10-30T20:36:54.875Z,10.75
2022-10-30T20:38:56.729Z,9.15
2022-10-30T20:41:01.049Z,8.82
2022-10-30T20:43:03.368Z,10.07
2022-10-30T20:45:05.782Z,9.18
2022-10-30T20:47:07.837Z,9.63
2022-10-30T20:49:17.165Z,9.60
2022-10-30T20:51:19.922Z,12.30
2022-10-30T20:53:21.910Z,9.05
2022-10-30T20:55:23.695Z,9.45
2022-10-30T20:57:25.462Z,10.70
2022-10-30T20:59:28.572Z,10.02
2022-10-30T21:01:30.537Z,10.52
2022-10-30T21:03:42.767Z,9.98
2022-10-30T21:05:55.520Z,10.52
2022-10-30T21:07:58.012Z,11.20
2022-10-30T21:10:02.959Z,12.52
2022-10-30T21:12:04.932Z,10.35
2022-10-30T21:14:06.636Z,9.05
2022-10-30T21:16:09.132Z,9.68
2022-10-30T21:18:13.081Z,14.48
2022-10-30T21:20:16.192Z,12.43
2022-10-30T21:22:17.836Z,14.35
2022-10-30T21:24:19.599Z,15.93
2022-10-30T21:26:21.539Z,15.73
2022-10-30T21:28:24.687Z,16.38
2022-10-30T21:30:26.627Z,16.77
2022-10-30T21:32:31.055Z,16.15
2022-10-30T21:34:32.619Z,20.10
2022-10-30T21:36:34.344Z,14.05
2022-10-30T21:38:36.690Z,19.15
2022-10-30T21:40:38.525Z,16.98
2022-10-30T21:42:40.144Z,15.90
2022-10-30T21:44:41.773Z,13.23
2022-10-30T21:46:43.484Z,18.80
2022-10-30T21:48:45.137Z,23.35
2022-10-30T21:50:46.849Z,22.65
2022-10-30T21:52:51.245Z,23.52
2022-10-30T21:54:52.905Z,21.20
2022-10-30T21:56:54.674Z,24.05
2022-10-30T21:58:59.391Z,20.52
2022-10-30T22:01:01.229Z,19.65
2022-10-30T22:03:02.928Z,19.27
2022-10-30T22:05:04.811Z,17.23
2022-10-30T22:07:06.448Z,19.77
2022-10-30T22:09:08.905Z,18.23
2022-10-30T22:11:11.160Z,18.25
2022-10-30T22:15:19.383Z,15.85
2022-10-30T22:17:21.058Z,18.08
2022-10-30T22:19:22.759Z,16.92
2022-10-30T22:21:25.161Z,14.93
2022-10-30T22:23:35.765Z,14.38
2022-10-30T22:25:37.287Z,11.57
2022-10-30T22:27:39.105Z,10.23
2022-10-30T22:29:40.693Z,11.98
2022-10-30T22:31:42.257Z,9.25
2022-10-30T22:33:43.959Z,8.73
2022-10-30T22:35:46.012Z,7.78
2022-10-30T22:37:47.592Z,7.25
2022-10-30T22:39:49.068Z,5.65
2022-10-30T22:41:50.896Z,7.32
2022-10-30T22:43:56.984Z,5.13
2022-10-30T22:45:58.473Z,5.18
2022-10-30T22:48:00.359Z,5.28
2022-10-30T22:50:05.958Z,4.30
2022-10-30T22:52:07.576Z,4.32
2022-10-30T22:54:14.449Z,6.43
2022-10-30T22:56:19.257Z,6.95
2022-10-30T22:58:22.104Z,7.25
2022-10-30T23:00:27.741Z,9.10
2022-10-30T23:02:29.482Z,10.90
2022-10-30T23:04:31.071Z,12.07
2022-10-30T23:06:34.489Z,10.50
2022-10-30T23:08:36.710Z,11.85
2022-10-30T23:10:38.204Z,15.10
2022-10-30T23:12:39.996Z,12.52
2022-10-30T23:14:41.784Z,13.50
2022-10-30T23:16:43.429Z,12.32
2022-10-30T23:18:45.794Z,11.52
2022-10-30T23:20:50.108Z,9.85
2022-10-30T23:22:51.829Z,9.63
2022-10-30T23:24:53.394Z,8.13
2022-10-30T23:26:55.309Z,9.50
2022-10-30T23:28:58.498Z,7.80
2022-10-30T23:31:00.161Z,7.03
2022-10-30T23:33:02.080Z,7.07
2022-10-30T23:35:04.321Z,6.10
2022-10-30T23:37:06.091Z,4.95
2022-10-30T23:39:11.169Z,5.45
2022-10-30T23:41:12.888Z,6.60
2022-10-30T23:45:23.250Z,5.00
2022-10-30T23:47:24.916Z,4.72
2022-10-30T23:49:29.007Z,4.93
2022-10-30T23:51:36.022Z,5.57
2022-10-30T23:53:37.573Z,5.05
2022-10-30T23:55:39.400Z,5.28
2022-10-30T23:57:48.001Z,5.03
2022-10-30T23:59:49.513Z,4.68
